sensor_id;sensor_type;location;lat;lon;timestamp;P1;durP1;ratioP1;P2;durP2;ratioP2
19225;SDS011;9747;48.536;12.522;2023-05-10T00:00:03;2.10;;;2.00;;
19225;SDS011;9747;48.536;12.522;2023-05-10T00:02:38;2.08;;;1.98;;
19225;SDS011;9747;48.536;12.522;2023-05-10T00:05:07;2.30;;;2.20;;
19225;SDS011;9747;48.536;12.522;2023-05-10T00:07:35;2.30;;;2.20;;
19225;SDS011;9747;48.536;12.522;2023-05-10T00:10:02;2.20;;;2.10;;
19225;SDS011;9747;48.536;12.522;2023-05-10T00:12:31;2.40;;;2.30;;
19225;SDS011;9747;48.536;12.522;2023-05-10T00:14:58;2.25;;;2.15;;
19225;SDS011;9747;48.536;12.522;2023-05-10T00:17:26;2.25;;;2.15;;
19225;SDS011;9747;48.536;12.522;2023-05-10T00:19:53;2.13;;;2.03;;
19225;SDS011;9747;48.536;12.522;2023-05-10T00:22:22;2.30;;;2.20;;
19225;SDS011;9747;48.536;12.522;2023-05-10T00:24:49;2.50;;;2.30;;
19225;SDS011;9747;48.536;12.522;2023-05-10T00:27:17;2.55;;;2.35;;
19225;SDS011;9747;48.536;12.522;2023-05-10T00:29:44;2.33;;;2.20;;
19225;SDS011;9747;48.536;12.522;2023-05-10T00:32:12;2.10;;;2.00;;
19225;SDS011;9747;48.536;12.522;2023-05-10T00:34:39;2.33;;;2.22;;
19225;SDS011;9747;48.536;12.522;2023-05-10T00:37:07;2.10;;;2.00;;
19225;SDS011;9747;48.536;12.522;2023-05-10T00:39:36;2.25;;;2.15;;
19225;SDS011;9747;48.536;12.522;2023-05-10T00:42:04;2.50;;;2.40;;
19225;SDS011;9747;48.536;12.522;2023-05-10T00:44:32;2.50;;;2.40;;
19225;SDS011;9747;48.536;12.522;2023-05-10T00:46:59;2.20;;;2.10;;
19225;SDS011;9747;48.536;12.522;2023-05-10T00:49:27;2.40;;;2.30;;
19225;SDS011;9747;48.536;12.522;2023-05-10T00:51:56;2.17;;;2.08;;
19225;SDS011;9747;48.536;12.522;2023-05-10T00:54:23;2.50;;;2.40;;
19225;SDS011;9747;48.536;12.522;2023-05-10T00:56:52;2.10;;;2.00;;
19225;SDS011;9747;48.536;12.522;2023-05-10T00:59:20;2.10;;;2.00;;
19225;SDS011;9747;48.536;12.522;2023-05-10T01:01:48;2.25;;;2.15;;
19225;SDS011;9747;48.536;12.522;2023-05-10T01:04:16;2.50;;;2.33;;
19225;SDS011;9747;48.536;12.522;2023-05-10T01:06:45;2.20;;;2.10;;
19225;SDS011;9747;48.536;12.522;2023-05-10T01:09:12;2.70;;;2.50;;
19225;SDS011;9747;48.536;12.522;2023-05-10T01:11:40;2.28;;;2.17;;
19225;SDS011;9747;48.536;12.522;2023-05-10T01:14:08;2.30;;;2.20;;
19225;SDS011;9747;48.536;12.522;2023-05-10T01:16:37;2.33;;;2.22;;
19225;SDS011;9747;48.536;12.522;2023-05-10T01:19:10;2.50;;;2.30;;
19225;SDS011;9747;48.536;12.522;2023-05-10T01:21:45;2.30;;;2.20;;
19225;SDS011;9747;48.536;12.522;2023-05-10T01:27:25;2.55;;;2.38;;
19225;SDS011;9747;48.536;12.522;2023-05-10T01:30:25;2.40;;;2.30;;
19225;SDS011;9747;48.536;12.522;2023-05-10T01:33:14;2.30;;;2.15;;
19225;SDS011;9747;48.536;12.522;2023-05-10T01:35:47;2.33;;;2.22;;
19225;SDS011;9747;48.536;12.522;2023-05-10T01:38:22;2.75;;;2.55;;
19225;SDS011;9747;48.536;12.522;2023-05-10T01:41:00;2.30;;;2.20;;
19225;SDS011;9747;48.536;12.522;2023-05-10T01:43:37;2.53;;;2.33;;
19225;SDS011;9747;48.536;12.522;2023-05-10T01:46:10;2.40;;;2.30;;
19225;SDS011;9747;48.536;12.522;2023-05-10T01:48:46;2.63;;;2.40;;
19225;SDS011;9747;48.536;12.522;2023-05-10T01:51:18;2.30;;;2.20;;
19225;SDS011;9747;48.536;12.522;2023-05-10T01:53:49;2.20;;;2.10;;
19225;SDS011;9747;48.536;12.522;2023-05-10T01:56:20;2.40;;;2.30;;
19225;SDS011;9747;48.536;12.522;2023-05-10T01:58:50;2.60;;;2.40;;
19225;SDS011;9747;48.536;12.522;2023-05-10T02:01:19;2.55;;;2.35;;
19225;SDS011;9747;48.536;12.522;2023-05-10T02:03:49;2.78;;;2.58;;
19225;SDS011;9747;48.536;12.522;2023-05-10T02:06:17;2.10;;;2.00;;
19225;SDS011;9747;48.536;12.522;2023-05-10T02:08:46;2.20;;;2.10;;
19225;SDS011;9747;48.536;12.522;2023-05-10T02:11:15;2.45;;;2.35;;
19225;SDS011;9747;48.536;12.522;2023-05-10T02:13:46;2.58;;;2.35;;
19225;SDS011;9747;48.536;12.522;2023-05-10T02:16:14;2.40;;;2.30;;
19225;SDS011;9747;48.536;12.522;2023-05-10T02:18:43;2.30;;;2.20;;
19225;SDS011;9747;48.536;12.522;2023-05-10T02:21:12;2.58;;;2.47;;
19225;SDS011;9747;48.536;12.522;2023-05-10T02:23:41;2.58;;;2.40;;
19225;SDS011;9747;48.536;12.522;2023-05-10T02:26:09;2.55;;;2.35;;
19225;SDS011;9747;48.536;12.522;2023-05-10T02:28:38;2.65;;;2.45;;
19225;SDS011;9747;48.536;12.522;2023-05-10T02:31:07;2.40;;;2.30;;
19225;SDS011;9747;48.536;12.522;2023-05-10T02:33:37;2.20;;;2.10;;
19225;SDS011;9747;48.536;12.522;2023-05-10T02:36:07;2.47;;;2.10;;
19225;SDS011;9747;48.536;12.522;2023-05-10T02:38:37;2.25;;;2.15;;
19225;SDS011;9747;48.536;12.522;2023-05-10T02:41:05;2.47;;;2.30;;
19225;SDS011;9747;48.536;12.522;2023-05-10T02:43:33;2.20;;;2.10;;
19225;SDS011;9747;48.536;12.522;2023-05-10T02:46:01;2.13;;;2.03;;
19225;SDS011;9747;48.536;12.522;2023-05-10T02:48:29;2.00;;;1.90;;
19225;SDS011;9747;48.536;12.522;2023-05-10T02:50:59;2.38;;;2.28;;
19225;SDS011;9747;48.536;12.522;2023-05-10T02:53:31;2.40;;;2.30;;
19225;SDS011;9747;48.536;12.522;2023-05-10T02:56:05;2.28;;;2.17;;
19225;SDS011;9747;48.536;12.522;2023-05-10T02:58:36;2.50;;;2.30;;
19225;SDS011;9747;48.536;12.522;2023-05-10T03:01:04;2.30;;;2.20;;
19225;SDS011;9747;48.536;12.522;2023-05-10T03:03:32;2.03;;;1.92;;
19225;SDS011;9747;48.536;12.522;2023-05-10T03:06:00;2.13;;;2.03;;
19225;SDS011;9747;48.536;12.522;2023-05-10T03:08:28;1.75;;;1.70;;
19225;SDS011;9747;48.536;12.522;2023-05-10T03:11:01;2.30;;;2.20;;
19225;SDS011;9747;48.536;12.522;2023-05-10T03:13:44;2.00;;;1.90;;
19225;SDS011;9747;48.536;12.522;2023-05-10T03:16:22;2.38;;;2.20;;
19225;SDS011;9747;48.536;12.522;2023-05-10T03:18:54;2.13;;;2.03;;
19225;SDS011;9747;48.536;12.522;2023-05-10T03:21:28;2.13;;;2.03;;
19225;SDS011;9747;48.536;12.522;2023-05-10T03:23:58;2.22;;;2.13;;
19225;SDS011;9747;48.536;12.522;2023-05-10T03:26:31;2.38;;;2.28;;
19225;SDS011;9747;48.536;12.522;2023-05-10T03:29:06;2.03;;;2.00;;
19225;SDS011;9747;48.536;12.522;2023-05-10T03:31:35;2.13;;;2.03;;
19225;SDS011;9747;48.536;12.522;2023-05-10T03:34:02;2.00;;;1.80;;
19225;SDS011;9747;48.536;12.522;2023-05-10T03:36:30;1.90;;;1.80;;
19225;SDS011;9747;48.536;12.522;2023-05-10T03:38:58;1.90;;;1.80;;
19225;SDS011;9747;48.536;12.522;2023-05-10T03:41:26;2.10;;;2.00;;
19225;SDS011;9747;48.536;12.522;2023-05-10T03:43:54;2.00;;;1.90;;
19225;SDS011;9747;48.536;12.522;2023-05-10T03:46:22;2.15;;;2.05;;
19225;SDS011;9747;48.536;12.522;2023-05-10T03:48:50;2.10;;;2.00;;
19225;SDS011;9747;48.536;12.522;2023-05-10T03:51:17;2.05;;;1.95;;
19225;SDS011;9747;48.536;12.522;2023-05-10T03:53:45;1.83;;;1.73;;
19225;SDS011;9747;48.536;12.522;2023-05-10T03:56:12;1.83;;;1.80;;
19225;SDS011;9747;48.536;12.522;2023-05-10T03:58:40;2.05;;;1.95;;
19225;SDS011;9747;48.536;12.522;2023-05-10T04:01:09;1.95;;;1.85;;
19225;SDS011;9747;48.536;12.522;2023-05-10T04:03:36;1.85;;;1.80;;
19225;SDS011;9747;48.536;12.522;2023-05-10T04:06:04;2.28;;;1.90;;
19225;SDS011;9747;48.536;12.522;2023-05-10T04:08:34;1.80;;;1.80;;
19225;SDS011;9747;48.536;12.522;2023-05-10T04:11:05;3.70;;;1.80;;
19225;SDS011;9747;48.536;12.522;2023-05-10T04:13:33;1.92;;;1.80;;
19225;SDS011;9747;48.536;12.522;2023-05-10T04:16:01;3.80;;;2.05;;
19225;SDS011;9747;48.536;12.522;2023-05-10T04:18:30;2.50;;;1.90;;
19225;SDS011;9747;48.536;12.522;2023-05-10T04:20:58;2.05;;;1.60;;
19225;SDS011;9747;48.536;12.522;2023-05-10T04:23:26;2.03;;;1.70;;
19225;SDS011;9747;48.536;12.522;2023-05-10T04:25:58;2.08;;;1.98;;
19225;SDS011;9747;48.536;12.522;2023-05-10T04:28:26;3.33;;;1.75;;
19225;SDS011;9747;48.536;12.522;2023-05-10T04:31:00;9.77;;;1.98;;
19225;SDS011;9747;48.536;12.522;2023-05-10T04:33:28;2.10;;;2.00;;
19225;SDS011;9747;48.536;12.522;2023-05-10T04:35:57;2.10;;;1.90;;
19225;SDS011;9747;48.536;12.522;2023-05-10T04:38:24;2.00;;;1.70;;
19225;SDS011;9747;48.536;12.522;2023-05-10T04:40:52;2.13;;;1.85;;
19225;SDS011;9747;48.536;12.522;2023-05-10T04:43:20;2.00;;;1.90;;
19225;SDS011;9747;48.536;12.522;2023-05-10T04:45:47;4.75;;;1.80;;
19225;SDS011;9747;48.536;12.522;2023-05-10T04:48:15;1.60;;;1.50;;
19225;SDS011;9747;48.536;12.522;2023-05-10T04:50:44;1.65;;;1.52;;
19225;SDS011;9747;48.536;12.522;2023-05-10T04:53:11;2.20;;;1.58;;
19225;SDS011;9747;48.536;12.522;2023-05-10T04:55:39;1.85;;;1.75;;
19225;SDS011;9747;48.536;12.522;2023-05-10T04:58:06;2.95;;;1.65;;
19225;SDS011;9747;48.536;12.522;2023-05-10T05:00:34;1.42;;;1.42;;
19225;SDS011;9747;48.536;12.522;2023-05-10T05:03:01;1.70;;;1.60;;
19225;SDS011;9747;48.536;12.522;2023-05-10T05:05:29;2.00;;;1.77;;
19225;SDS011;9747;48.536;12.522;2023-05-10T05:07:58;3.90;;;1.70;;
19225;SDS011;9747;48.536;12.522;2023-05-10T05:10:25;1.55;;;1.45;;
19225;SDS011;9747;48.536;12.522;2023-05-10T05:12:53;1.60;;;1.50;;
19225;SDS011;9747;48.536;12.522;2023-05-10T05:15:20;1.70;;;1.60;;
19225;SDS011;9747;48.536;12.522;2023-05-10T05:17:48;1.40;;;1.30;;
19225;SDS011;9747;48.536;12.522;2023-05-10T05:20:16;2.47;;;1.60;;
19225;SDS011;9747;48.536;12.522;2023-05-10T05:22:44;2.08;;;1.80;;
19225;SDS011;9747;48.536;12.522;2023-05-10T05:25:13;1.67;;;1.58;;
19225;SDS011;9747;48.536;12.522;2023-05-10T05:27:40;1.65;;;1.48;;
19225;SDS011;9747;48.536;12.522;2023-05-10T05:30:08;1.75;;;1.65;;
19225;SDS011;9747;48.536;12.522;2023-05-10T05:32:36;1.92;;;1.40;;
19225;SDS011;9747;48.536;12.522;2023-05-10T05:35:04;1.50;;;1.40;;
19225;SDS011;9747;48.536;12.522;2023-05-10T05:37:32;1.40;;;1.30;;
19225;SDS011;9747;48.536;12.522;2023-05-10T05:40:00;1.52;;;1.42;;
19225;SDS011;9747;48.536;12.522;2023-05-10T05:42:30;1.50;;;1.38;;
19225;SDS011;9747;48.536;12.522;2023-05-10T05:44:58;1.25;;;1.25;;
19225;SDS011;9747;48.536;12.522;2023-05-10T05:47:25;1.77;;;1.40;;
19225;SDS011;9747;48.536;12.522;2023-05-10T05:49:53;2.35;;;1.40;;
19225;SDS011;9747;48.536;12.522;2023-05-10T05:52:21;1.38;;;1.30;;
19225;SDS011;9747;48.536;12.522;2023-05-10T05:54:49;1.33;;;1.23;;
19225;SDS011;9747;48.536;12.522;2023-05-10T05:57:16;1.65;;;1.23;;
19225;SDS011;9747;48.536;12.522;2023-05-10T05:59:45;1.48;;;1.38;;
19225;SDS011;9747;48.536;12.522;2023-05-10T06:02:12;1.40;;;1.30;;
19225;SDS011;9747;48.536;12.522;2023-05-10T06:04:40;1.30;;;1.30;;
19225;SDS011;9747;48.536;12.522;2023-05-10T06:07:07;1.40;;;1.30;;
19225;SDS011;9747;48.536;12.522;2023-05-10T06:09:35;1.35;;;1.30;;
19225;SDS011;9747;48.536;12.522;2023-05-10T06:12:02;1.27;;;1.27;;
19225;SDS011;9747;48.536;12.522;2023-05-10T06:14:30;1.40;;;1.30;;
19225;SDS011;9747;48.536;12.522;2023-05-10T06:16:59;1.50;;;1.40;;
19225;SDS011;9747;48.536;12.522;2023-05-10T06:19:29;1.10;;;1.10;;
19225;SDS011;9747;48.536;12.522;2023-05-10T06:21:57;2.22;;;1.48;;
19225;SDS011;9747;48.536;12.522;2023-05-10T06:24:24;1.10;;;1.10;;
19225;SDS011;9747;48.536;12.522;2023-05-10T06:26:52;1.40;;;1.40;;
19225;SDS011;9747;48.536;12.522;2023-05-10T06:29:19;1.35;;;1.35;;
19225;SDS011;9747;48.536;12.522;2023-05-10T06:31:47;1.50;;;1.50;;
19225;SDS011;9747;48.536;12.522;2023-05-10T06:34:16;1.45;;;1.35;;
19225;SDS011;9747;48.536;12.522;2023-05-10T06:36:44;1.42;;;1.33;;
19225;SDS011;9747;48.536;12.522;2023-05-10T06:39:12;2.35;;;1.90;;
19225;SDS011;9747;48.536;12.522;2023-05-10T06:41:40;5.00;;;1.80;;
19225;SDS011;9747;48.536;12.522;2023-05-10T06:44:07;6.80;;;2.17;;
19225;SDS011;9747;48.536;12.522;2023-05-10T06:46:35;5.22;;;2.20;;
19225;SDS011;9747;48.536;12.522;2023-05-10T06:49:02;7.40;;;2.63;;
19225;SDS011;9747;48.536;12.522;2023-05-10T06:51:31;6.30;;;2.50;;
19225;SDS011;9747;48.536;12.522;2023-05-10T06:53:58;8.30;;;2.50;;
19225;SDS011;9747;48.536;12.522;2023-05-10T06:56:26;5.90;;;2.78;;
19225;SDS011;9747;48.536;12.522;2023-05-10T06:58:53;9.35;;;2.63;;
19225;SDS011;9747;48.536;12.522;2023-05-10T07:01:21;4.50;;;2.13;;
19225;SDS011;9747;48.536;12.522;2023-05-10T07:03:48;6.63;;;2.65;;
19225;SDS011;9747;48.536;12.522;2023-05-10T07:06:16;6.35;;;2.20;;
19225;SDS011;9747;48.536;12.522;2023-05-10T07:08:44;6.05;;;2.17;;
19225;SDS011;9747;48.536;12.522;2023-05-10T07:11:12;6.85;;;2.10;;
19225;SDS011;9747;48.536;12.522;2023-05-10T07:13:39;6.65;;;2.20;;
19225;SDS011;9747;48.536;12.522;2023-05-10T07:16:09;4.03;;;1.90;;
19225;SDS011;9747;48.536;12.522;2023-05-10T07:18:37;6.78;;;1.95;;
19225;SDS011;9747;48.536;12.522;2023-05-10T07:21:04;6.38;;;2.05;;
19225;SDS011;9747;48.536;12.522;2023-05-10T07:23:32;4.10;;;1.90;;
19225;SDS011;9747;48.536;12.522;2023-05-10T07:26:02;4.22;;;1.70;;
19225;SDS011;9747;48.536;12.522;2023-05-10T07:28:29;5.40;;;1.98;;
19225;SDS011;9747;48.536;12.522;2023-05-10T07:30:57;4.93;;;2.08;;
19225;SDS011;9747;48.536;12.522;2023-05-10T07:33:24;4.65;;;1.80;;
19225;SDS011;9747;48.536;12.522;2023-05-10T07:35:52;3.88;;;1.80;;
19225;SDS011;9747;48.536;12.522;2023-05-10T07:38:19;4.47;;;1.80;;
19225;SDS011;9747;48.536;12.522;2023-05-10T07:40:47;3.92;;;1.80;;
19225;SDS011;9747;48.536;12.522;2023-05-10T07:43:16;3.47;;;1.48;;
19225;SDS011;9747;48.536;12.522;2023-05-10T07:45:43;3.85;;;1.83;;
19225;SDS011;9747;48.536;12.522;2023-05-10T07:48:11;2.08;;;1.60;;
19225;SDS011;9747;48.536;12.522;2023-05-10T07:50:38;3.42;;;1.95;;
19225;SDS011;9747;48.536;12.522;2023-05-10T07:53:06;4.75;;;1.60;;
19225;SDS011;9747;48.536;12.522;2023-05-10T07:55:33;3.60;;;1.90;;
19225;SDS011;9747;48.536;12.522;2023-05-10T07:58:00;2.58;;;1.60;;
19225;SDS011;9747;48.536;12.522;2023-05-10T08:00:30;1.63;;;1.33;;
19225;SDS011;9747;48.536;12.522;2023-05-10T08:02:57;2.92;;;1.80;;
19225;SDS011;9747;48.536;12.522;2023-05-10T08:05:25;1.90;;;1.30;;
19225;SDS011;9747;48.536;12.522;2023-05-10T08:07:52;3.00;;;1.60;;
19225;SDS011;9747;48.536;12.522;2023-05-10T08:10:20;3.05;;;1.60;;
19225;SDS011;9747;48.536;12.522;2023-05-10T08:12:47;1.63;;;1.27;;
19225;SDS011;9747;48.536;12.522;2023-05-10T08:15:15;3.70;;;1.33;;
19225;SDS011;9747;48.536;12.522;2023-05-10T08:17:44;2.25;;;1.40;;
19225;SDS011;9747;48.536;12.522;2023-05-10T08:20:11;3.70;;;1.40;;
19225;SDS011;9747;48.536;12.522;2023-05-10T08:22:41;2.33;;;1.20;;
19225;SDS011;9747;48.536;12.522;2023-05-10T08:25:09;1.50;;;1.20;;
19225;SDS011;9747;48.536;12.522;2023-05-10T08:27:36;2.88;;;1.42;;
19225;SDS011;9747;48.536;12.522;2023-05-10T08:30:04;3.22;;;1.20;;
19225;SDS011;9747;48.536;12.522;2023-05-10T08:32:36;1.58;;;1.20;;
19225;SDS011;9747;48.536;12.522;2023-05-10T08:35:05;3.50;;;1.30;;
19225;SDS011;9747;48.536;12.522;2023-05-10T08:37:33;2.28;;;1.40;;
19225;SDS011;9747;48.536;12.522;2023-05-10T08:40:01;2.63;;;1.10;;
19225;SDS011;9747;48.536;12.522;2023-05-10T08:42:28;1.42;;;1.20;;
19225;SDS011;9747;48.536;12.522;2023-05-10T08:44:57;2.10;;;1.20;;
19225;SDS011;9747;48.536;12.522;2023-05-10T08:47:26;1.38;;;1.13;;
19225;SDS011;9747;48.536;12.522;2023-05-10T08:49:54;1.10;;;1.00;;
19225;SDS011;9747;48.536;12.522;2023-05-10T08:52:23;1.75;;;1.00;;
19225;SDS011;9747;48.536;12.522;2023-05-10T08:54:52;1.27;;;1.10;;
19225;SDS011;9747;48.536;12.522;2023-05-10T08:57:19;1.88;;;1.02;;
19225;SDS011;9747;48.536;12.522;2023-05-10T08:59:47;1.33;;;1.23;;
19225;SDS011;9747;48.536;12.522;2023-05-10T09:02:14;2.42;;;1.27;;
19225;SDS011;9747;48.536;12.522;2023-05-10T09:04:43;1.10;;;0.90;;
19225;SDS011;9747;48.536;12.522;2023-05-10T09:07:10;1.30;;;1.08;;
19225;SDS011;9747;48.536;12.522;2023-05-10T09:09:39;1.70;;;1.15;;
19225;SDS011;9747;48.536;12.522;2023-05-10T09:12:07;1.20;;;0.95;;
19225;SDS011;9747;48.536;12.522;2023-05-10T09:14:36;1.23;;;1.10;;
19225;SDS011;9747;48.536;12.522;2023-05-10T09:17:05;1.02;;;1.02;;
19225;SDS011;9747;48.536;12.522;2023-05-10T09:19:32;1.98;;;1.10;;
19225;SDS011;9747;48.536;12.522;2023-05-10T09:22:00;1.00;;;0.90;;
19225;SDS011;9747;48.536;12.522;2023-05-10T09:24:29;1.48;;;1.15;;
19225;SDS011;9747;48.536;12.522;2023-05-10T09:26:58;1.27;;;1.00;;
19225;SDS011;9747;48.536;12.522;2023-05-10T09:29:25;1.00;;;1.00;;
19225;SDS011;9747;48.536;12.522;2023-05-10T09:31:54;1.65;;;1.20;;
19225;SDS011;9747;48.536;12.522;2023-05-10T09:34:29;1.25;;;1.15;;
19225;SDS011;9747;48.536;12.522;2023-05-10T09:37:00;1.73;;;1.13;;
19225;SDS011;9747;48.536;12.522;2023-05-10T09:39:32;0.88;;;0.88;;
19225;SDS011;9747;48.536;12.522;2023-05-10T09:42:03;1.55;;;1.10;;
19225;SDS011;9747;48.536;12.522;2023-05-10T09:44:32;1.00;;;1.00;;
19225;SDS011;9747;48.536;12.522;2023-05-10T09:47:00;0.90;;;0.90;;
19225;SDS011;9747;48.536;12.522;2023-05-10T09:49:29;1.20;;;1.10;;
19225;SDS011;9747;48.536;12.522;2023-05-10T09:52:01;1.98;;;1.10;;
19225;SDS011;9747;48.536;12.522;2023-05-10T09:54:30;1.02;;;0.80;;
19225;SDS011;9747;48.536;12.522;2023-05-10T09:56:58;1.10;;;1.00;;
19225;SDS011;9747;48.536;12.522;2023-05-10T09:59:28;1.42;;;1.00;;
19225;SDS011;9747;48.536;12.522;2023-05-10T10:02:00;1.65;;;1.00;;
19225;SDS011;9747;48.536;12.522;2023-05-10T10:04:27;0.80;;;0.80;;
19225;SDS011;9747;48.536;12.522;2023-05-10T10:06:58;1.27;;;1.10;;
19225;SDS011;9747;48.536;12.522;2023-05-10T10:09:28;1.00;;;0.90;;
19225;SDS011;9747;48.536;12.522;2023-05-10T10:11:55;1.00;;;1.00;;
19225;SDS011;9747;48.536;12.522;2023-05-10T10:14:23;0.90;;;0.90;;
19225;SDS011;9747;48.536;12.522;2023-05-10T10:16:52;0.80;;;0.80;;
19225;SDS011;9747;48.536;12.522;2023-05-10T10:19:20;0.70;;;0.70;;
19225;SDS011;9747;48.536;12.522;2023-05-10T10:21:49;1.15;;;1.02;;
19225;SDS011;9747;48.536;12.522;2023-05-10T10:24:17;0.90;;;0.90;;
19225;SDS011;9747;48.536;12.522;2023-05-10T10:26:44;0.80;;;0.80;;
19225;SDS011;9747;48.536;12.522;2023-05-10T10:29:18;3.13;;;1.10;;
19225;SDS011;9747;48.536;12.522;2023-05-10T10:31:53;1.38;;;1.00;;
19225;SDS011;9747;48.536;12.522;2023-05-10T10:34:28;0.93;;;0.93;;
19225;SDS011;9747;48.536;12.522;2023-05-10T10:36:56;0.90;;;0.90;;
19225;SDS011;9747;48.536;12.522;2023-05-10T10:39:26;1.30;;;0.90;;
19225;SDS011;9747;48.536;12.522;2023-05-10T10:41:54;1.15;;;0.82;;
19225;SDS011;9747;48.536;12.522;2023-05-10T10:50:04;0.90;;;0.77;;
19225;SDS011;9747;48.536;12.522;2023-05-10T10:52:35;0.98;;;0.98;;
19225;SDS011;9747;48.536;12.522;2023-05-10T10:55:04;1.00;;;0.90;;
19225;SDS011;9747;48.536;12.522;2023-05-10T10:57:42;1.23;;;1.00;;
19225;SDS011;9747;48.536;12.522;2023-05-10T11:00:19;1.30;;;0.90;;
19225;SDS011;9747;48.536;12.522;2023-05-10T11:02:52;1.00;;;0.85;;
19225;SDS011;9747;48.536;12.522;2023-05-10T11:08:14;0.80;;;0.80;;
19225;SDS011;9747;48.536;12.522;2023-05-10T11:11:01;1.75;;;0.90;;
19225;SDS011;9747;48.536;12.522;2023-05-10T11:13:33;0.95;;;0.70;;
19225;SDS011;9747;48.536;12.522;2023-05-10T11:16:15;0.80;;;0.80;;
19225;SDS011;9747;48.536;12.522;2023-05-10T11:18:56;1.00;;;0.85;;
19225;SDS011;9747;48.536;12.522;2023-05-10T11:21:27;0.75;;;0.75;;
19225;SDS011;9747;48.536;12.522;2023-05-10T11:23:55;0.70;;;0.70;;
19225;SDS011;9747;48.536;12.522;2023-05-10T11:26:23;0.90;;;0.90;;
19225;SDS011;9747;48.536;12.522;2023-05-10T11:28:52;0.80;;;0.80;;
19225;SDS011;9747;48.536;12.522;2023-05-10T11:31:21;0.80;;;0.80;;
19225;SDS011;9747;48.536;12.522;2023-05-10T11:33:52;0.90;;;0.90;;
19225;SDS011;9747;48.536;12.522;2023-05-10T11:36:24;0.95;;;0.95;;
19225;SDS011;9747;48.536;12.522;2023-05-10T11:38:54;0.80;;;0.80;;
19225;SDS011;9747;48.536;12.522;2023-05-10T11:41:23;0.85;;;0.85;;
19225;SDS011;9747;48.536;12.522;2023-05-10T11:43:51;0.70;;;0.70;;
19225;SDS011;9747;48.536;12.522;2023-05-10T11:46:21;0.90;;;0.90;;
19225;SDS011;9747;48.536;12.522;2023-05-10T11:48:51;0.82;;;0.82;;
19225;SDS011;9747;48.536;12.522;2023-05-10T11:51:22;0.60;;;0.60;;
19225;SDS011;9747;48.536;12.522;2023-05-10T11:53:52;0.95;;;0.80;;
19225;SDS011;9747;48.536;12.522;2023-05-10T11:56:21;0.95;;;0.95;;
19225;SDS011;9747;48.536;12.522;2023-05-10T11:58:54;0.70;;;0.70;;
19225;SDS011;9747;48.536;12.522;2023-05-10T12:01:23;0.70;;;0.70;;
19225;SDS011;9747;48.536;12.522;2023-05-10T12:03:52;0.73;;;0.73;;
19225;SDS011;9747;48.536;12.522;2023-05-10T12:06:25;0.95;;;0.70;;
19225;SDS011;9747;48.536;12.522;2023-05-10T12:08:54;0.90;;;0.90;;
19225;SDS011;9747;48.536;12.522;2023-05-10T12:11:24;0.70;;;0.70;;
19225;SDS011;9747;48.536;12.522;2023-05-10T12:13:52;0.80;;;0.75;;
19225;SDS011;9747;48.536;12.522;2023-05-10T12:16:21;0.70;;;0.70;;
19225;SDS011;9747;48.536;12.522;2023-05-10T12:18:50;0.90;;;0.82;;
19225;SDS011;9747;48.536;12.522;2023-05-10T12:21:20;0.63;;;0.63;;
19225;SDS011;9747;48.536;12.522;2023-05-10T12:23:49;0.60;;;0.60;;
19225;SDS011;9747;48.536;12.522;2023-05-10T12:26:21;0.70;;;0.70;;
19225;SDS011;9747;48.536;12.522;2023-05-10T12:28:49;0.70;;;0.70;;
19225;SDS011;9747;48.536;12.522;2023-05-10T12:31:17;0.90;;;0.90;;
19225;SDS011;9747;48.536;12.522;2023-05-10T12:33:45;0.95;;;0.70;;
19225;SDS011;9747;48.536;12.522;2023-05-10T12:36:14;0.60;;;0.60;;
19225;SDS011;9747;48.536;12.522;2023-05-10T12:38:43;0.65;;;0.65;;
19225;SDS011;9747;48.536;12.522;2023-05-10T12:41:15;0.70;;;0.70;;
19225;SDS011;9747;48.536;12.522;2023-05-10T12:43:43;0.70;;;0.70;;
19225;SDS011;9747;48.536;12.522;2023-05-10T12:46:12;0.90;;;0.90;;
19225;SDS011;9747;48.536;12.522;2023-05-10T12:48:41;0.75;;;0.75;;
19225;SDS011;9747;48.536;12.522;2023-05-10T12:51:10;0.70;;;0.70;;
19225;SDS011;9747;48.536;12.522;2023-05-10T12:53:40;0.80;;;0.80;;
19225;SDS011;9747;48.536;12.522;2023-05-10T12:56:08;0.68;;;0.68;;
19225;SDS011;9747;48.536;12.522;2023-05-10T12:58:37;0.60;;;0.60;;
19225;SDS011;9747;48.536;12.522;2023-05-10T13:01:05;0.70;;;0.70;;
19225;SDS011;9747;48.536;12.522;2023-05-10T13:03:33;0.55;;;0.55;;
19225;SDS011;9747;48.536;12.522;2023-05-10T13:06:01;0.60;;;0.60;;
19225;SDS011;9747;48.536;12.522;2023-05-10T13:08:28;0.80;;;0.80;;
19225;SDS011;9747;48.536;12.522;2023-05-10T13:10:58;0.60;;;0.60;;
19225;SDS011;9747;48.536;12.522;2023-05-10T13:13:25;0.55;;;0.55;;
19225;SDS011;9747;48.536;12.522;2023-05-10T13:15:54;0.70;;;0.70;;
19225;SDS011;9747;48.536;12.522;2023-05-10T13:18:21;0.60;;;0.60;;
19225;SDS011;9747;48.536;12.522;2023-05-10T13:20:49;0.75;;;0.70;;
19225;SDS011;9747;48.536;12.522;2023-05-10T13:23:16;0.70;;;0.70;;
19225;SDS011;9747;48.536;12.522;2023-05-10T13:25:44;0.70;;;0.70;;
19225;SDS011;9747;48.536;12.522;2023-05-10T13:28:11;0.75;;;0.75;;
19225;SDS011;9747;48.536;12.522;2023-05-10T13:30:39;0.70;;;0.70;;
19225;SDS011;9747;48.536;12.522;2023-05-10T13:33:08;0.90;;;0.90;;
19225;SDS011;9747;48.536;12.522;2023-05-10T13:35:35;0.60;;;0.60;;
19225;SDS011;9747;48.536;12.522;2023-05-10T13:38:02;0.70;;;0.70;;
19225;SDS011;9747;48.536;12.522;2023-05-10T13:40:32;0.82;;;0.82;;
19225;SDS011;9747;48.536;12.522;2023-05-10T13:43:01;0.70;;;0.70;;
19225;SDS011;9747;48.536;12.522;2023-05-10T13:45:28;0.57;;;0.57;;
19225;SDS011;9747;48.536;12.522;2023-05-10T13:47:55;0.63;;;0.63;;
19225;SDS011;9747;48.536;12.522;2023-05-10T13:50:24;0.70;;;0.70;;
19225;SDS011;9747;48.536;12.522;2023-05-10T13:52:52;0.98;;;0.70;;
19225;SDS011;9747;48.536;12.522;2023-05-10T13:55:19;1.10;;;0.70;;
19225;SDS011;9747;48.536;12.522;2023-05-10T13:57:47;0.63;;;0.63;;
19225;SDS011;9747;48.536;12.522;2023-05-10T14:00:15;0.70;;;0.70;;
19225;SDS011;9747;48.536;12.522;2023-05-10T14:02:43;1.08;;;0.98;;
19225;SDS011;9747;48.536;12.522;2023-05-10T14:05:10;1.50;;;0.77;;
19225;SDS011;9747;48.536;12.522;2023-05-10T14:07:39;1.17;;;0.70;;
19225;SDS011;9747;48.536;12.522;2023-05-10T14:10:06;0.70;;;0.70;;
19225;SDS011;9747;48.536;12.522;2023-05-10T14:12:35;0.98;;;0.75;;
19225;SDS011;9747;48.536;12.522;2023-05-10T14:15:02;0.77;;;0.77;;
19225;SDS011;9747;48.536;12.522;2023-05-10T14:17:31;0.70;;;0.70;;
19225;SDS011;9747;48.536;12.522;2023-05-10T14:19:59;1.05;;;0.88;;
19225;SDS011;9747;48.536;12.522;2023-05-10T14:22:27;1.55;;;0.93;;
19225;SDS011;9747;48.536;12.522;2023-05-10T14:24:55;1.75;;;0.90;;
19225;SDS011;9747;48.536;12.522;2023-05-10T14:27:23;1.58;;;0.93;;
19225;SDS011;9747;48.536;12.522;2023-05-10T14:29:51;4.65;;;0.90;;
19225;SDS011;9747;48.536;12.522;2023-05-10T14:32:19;1.52;;;0.70;;
19225;SDS011;9747;48.536;12.522;2023-05-10T14:34:46;5.95;;;0.80;;
19225;SDS011;9747;48.536;12.522;2023-05-10T14:37:14;2.83;;;0.73;;
19225;SDS011;9747;48.536;12.522;2023-05-10T14:39:42;1.38;;;0.82;;
19225;SDS011;9747;48.536;12.522;2023-05-10T14:42:11;0.82;;;0.82;;
19225;SDS011;9747;48.536;12.522;2023-05-10T14:44:38;2.05;;;0.80;;
19225;SDS011;9747;48.536;12.522;2023-05-10T14:47:06;2.15;;;0.90;;
19225;SDS011;9747;48.536;12.522;2023-05-10T14:49:34;1.98;;;0.70;;
19225;SDS011;9747;48.536;12.522;2023-05-10T14:52:01;1.85;;;0.90;;
19225;SDS011;9747;48.536;12.522;2023-05-10T14:54:28;1.55;;;0.85;;
19225;SDS011;9747;48.536;12.522;2023-05-10T14:56:58;1.48;;;0.70;;
19225;SDS011;9747;48.536;12.522;2023-05-10T14:59:27;1.52;;;0.80;;
19225;SDS011;9747;48.536;12.522;2023-05-10T15:01:55;1.00;;;1.00;;
19225;SDS011;9747;48.536;12.522;2023-05-10T15:04:22;1.52;;;0.70;;
19225;SDS011;9747;48.536;12.522;2023-05-10T15:06:50;2.67;;;1.00;;
19225;SDS011;9747;48.536;12.522;2023-05-10T15:09:17;2.25;;;0.80;;